sensor_id;sensor_type;location;lat;lon;timestamp;temperature;humidity
19252;DHT22;9760;50.944;5.304;2022-12-08T00:00:35;4.60;99.90
19252;DHT22;9760;50.944;5.304;2022-12-08T00:03:01;4.50;99.90
19252;DHT22;9760;50.944;5.304;2022-12-08T00:05:26;4.60;99.90
19252;DHT22;9760;50.944;5.304;2022-12-08T00:08:10;4.60;99.90
19252;DHT22;9760;50.944;5.304;2022-12-08T00:10:54;4.60;99.90
19252;DHT22;9760;50.944;5.304;2022-12-08T00:13:20;4.60;99.90
19252;DHT22;9760;50.944;5.304;2022-12-08T00:15:47;4.60;99.90
19252;DHT22;9760;50.944;5.304;2022-12-08T00:18:12;4.60;99.90
19252;DHT22;9760;50.944;5.304;2022-12-08T00:20:38;4.70;99.90
19252;DHT22;9760;50.944;5.304;2022-12-08T00:23:04;4.60;99.90
19252;DHT22;9760;50.944;5.304;2022-12-08T00:25:30;4.60;99.90
19252;DHT22;9760;50.944;5.304;2022-12-08T00:27:56;4.60;99.90
19252;DHT22;9760;50.944;5.304;2022-12-08T00:30:22;4.60;99.90
19252;DHT22;9760;50.944;5.304;2022-12-08T00:32:47;4.60;99.90
19252;DHT22;9760;50.944;5.304;2022-12-08T00:35:13;4.60;99.90
19252;DHT22;9760;50.944;5.304;2022-12-08T00:37:38;4.50;99.90
19252;DHT22;9760;50.944;5.304;2022-12-08T00:40:05;4.50;99.90
19252;DHT22;9760;50.944;5.304;2022-12-08T00:42:30;4.50;99.90
19252;DHT22;9760;50.944;5.304;2022-12-08T00:44:56;4.50;99.90
19252;DHT22;9760;50.944;5.304;2022-12-08T00:47:21;4.50;99.90
19252;DHT22;9760;50.944;5.304;2022-12-08T00:49:47;4.60;99.90
19252;DHT22;9760;50.944;5.304;2022-12-08T00:52:13;4.60;99.90
19252;DHT22;9760;50.944;5.304;2022-12-08T00:54:38;4.60;99.90
19252;DHT22;9760;50.944;5.304;2022-12-08T00:57:04;4.60;99.90
19252;DHT22;9760;50.944;5.304;2022-12-08T00:59:29;4.60;99.90
19252;DHT22;9760;50.944;5.304;2022-12-08T01:01:55;4.50;99.90
19252;DHT22;9760;50.944;5.304;2022-12-08T01:04:21;4.50;99.90
19252;DHT22;9760;50.944;5.304;2022-12-08T01:06:47;4.50;99.90
19252;DHT22;9760;50.944;5.304;2022-12-08T01:09:14;4.40;99.90
19252;DHT22;9760;50.944;5.304;2022-12-08T01:11:39;4.40;99.90
19252;DHT22;9760;50.944;5.304;2022-12-08T01:14:05;4.40;99.90
19252;DHT22;9760;50.944;5.304;2022-12-08T01:16:33;4.50;99.90
19252;DHT22;9760;50.944;5.304;2022-12-08T01:19:00;4.40;99.90
19252;DHT22;9760;50.944;5.304;2022-12-08T01:21:26;4.40;99.90
19252;DHT22;9760;50.944;5.304;2022-12-08T01:23:51;4.40;99.90
19252;DHT22;9760;50.944;5.304;2022-12-08T01:26:18;4.40;99.90
19252;DHT22;9760;50.944;5.304;2022-12-08T01:28:44;4.40;99.90
19252;DHT22;9760;50.944;5.304;2022-12-08T01:31:13;4.40;99.90
19252;DHT22;9760;50.944;5.304;2022-12-08T01:33:39;4.40;99.90
19252;DHT22;9760;50.944;5.304;2022-12-08T01:36:05;4.40;99.90
19252;DHT22;9760;50.944;5.304;2022-12-08T01:38:31;4.40;99.90
19252;DHT22;9760;50.944;5.304;2022-12-08T01:40:57;4.40;99.90
19252;DHT22;9760;50.944;5.304;2022-12-08T01:43:23;4.40;99.90
19252;DHT22;9760;50.944;5.304;2022-12-08T01:45:48;4.40;99.90
19252;DHT22;9760;50.944;5.304;2022-12-08T01:48:23;4.40;99.90
19252;DHT22;9760;50.944;5.304;2022-12-08T01:50:50;4.40;99.90
19252;DHT22;9760;50.944;5.304;2022-12-08T01:53:24;4.40;99.90
19252;DHT22;9760;50.944;5.304;2022-12-08T01:55:59;4.40;99.90
19252;DHT22;9760;50.944;5.304;2022-12-08T01:58:34;4.30;99.90
19252;DHT22;9760;50.944;5.304;2022-12-08T02:01:00;4.40;99.90
19252;DHT22;9760;50.944;5.304;2022-12-08T02:03:31;4.40;99.90
19252;DHT22;9760;50.944;5.304;2022-12-08T02:05:58;4.40;99.90
19252;DHT22;9760;50.944;5.304;2022-12-08T02:08:25;4.40;99.90
19252;DHT22;9760;50.944;5.304;2022-12-08T02:10:51;4.40;99.90
19252;DHT22;9760;50.944;5.304;2022-12-08T02:13:18;4.30;99.90
19252;DHT22;9760;50.944;5.304;2022-12-08T02:21:35;4.30;99.90
19252;DHT22;9760;50.944;5.304;2022-12-08T02:24:22;4.30;99.90
19252;DHT22;9760;50.944;5.304;2022-12-08T02:35:56;4.40;99.90
19252;DHT22;9760;50.944;5.304;2022-12-08T02:38:36;4.40;99.90
19252;DHT22;9760;50.944;5.304;2022-12-08T02:43:59;4.30;99.90
19252;DHT22;9760;50.944;5.304;2022-12-08T02:46:31;4.30;99.90
19252;DHT22;9760;50.944;5.304;2022-12-08T02:48:59;4.30;99.90
19252;DHT22;9760;50.944;5.304;2022-12-08T02:51:25;4.20;99.90
19252;DHT22;9760;50.944;5.304;2022-12-08T02:53:51;4.20;99.90
19252;DHT22;9760;50.944;5.304;2022-12-08T02:56:52;4.20;99.90
19252;DHT22;9760;50.944;5.304;2022-12-08T03:07:38;4.10;99.90
19252;DHT22;9760;50.944;5.304;2022-12-08T03:15:35;4.20;99.90
19252;DHT22;9760;50.944;5.304;2022-12-08T03:18:03;4.10;99.90
19252;DHT22;9760;50.944;5.304;2022-12-08T03:20:32;4.10;99.90
19252;DHT22;9760;50.944;5.304;2022-12-08T03:22:59;4.10;99.90
19252;DHT22;9760;50.944;5.304;2022-12-08T03:25:30;4.10;99.90
19252;DHT22;9760;50.944;5.304;2022-12-08T03:27:56;4.10;99.90
19252;DHT22;9760;50.944;5.304;2022-12-08T03:30:23;4.10;99.90
19252;DHT22;9760;50.944;5.304;2022-12-08T03:33:00;4.10;99.90
19252;DHT22;9760;50.944;5.304;2022-12-08T03:35:31;4.00;99.90
19252;DHT22;9760;50.944;5.304;2022-12-08T03:38:16;4.00;99.90
19252;DHT22;9760;50.944;5.304;2022-12-08T03:40:42;4.00;99.90
19252;DHT22;9760;50.944;5.304;2022-12-08T03:43:08;4.10;99.90
19252;DHT22;9760;50.944;5.304;2022-12-08T03:45:33;4.10;99.90
19252;DHT22;9760;50.944;5.304;2022-12-08T03:47:59;4.00;99.90
19252;DHT22;9760;50.944;5.304;2022-12-08T03:50:25;4.10;99.90
19252;DHT22;9760;50.944;5.304;2022-12-08T03:52:50;4.10;99.90
19252;DHT22;9760;50.944;5.304;2022-12-08T03:55:16;4.00;99.90
19252;DHT22;9760;50.944;5.304;2022-12-08T03:57:42;4.00;99.90
19252;DHT22;9760;50.944;5.304;2022-12-08T04:00:10;4.10;99.90
19252;DHT22;9760;50.944;5.304;2022-12-08T04:02:38;4.10;99.90
19252;DHT22;9760;50.944;5.304;2022-12-08T04:05:04;4.10;99.90
19252;DHT22;9760;50.944;5.304;2022-12-08T04:07:30;4.00;99.90
19252;DHT22;9760;50.944;5.304;2022-12-08T04:09:56;4.00;99.90
19252;DHT22;9760;50.944;5.304;2022-12-08T04:12:21;4.00;99.90
19252;DHT22;9760;50.944;5.304;2022-12-08T04:14:47;4.00;99.90
19252;DHT22;9760;50.944;5.304;2022-12-08T04:17:13;4.00;99.90
19252;DHT22;9760;50.944;5.304;2022-12-08T04:19:41;4.00;99.90
19252;DHT22;9760;50.944;5.304;2022-12-08T04:22:07;4.00;99.90
19252;DHT22;9760;50.944;5.304;2022-12-08T04:24:33;4.00;99.90
19252;DHT22;9760;50.944;5.304;2022-12-08T04:26:58;3.90;99.90
19252;DHT22;9760;50.944;5.304;2022-12-08T04:29:24;3.90;99.90
19252;DHT22;9760;50.944;5.304;2022-12-08T04:31:50;4.00;99.90
19252;DHT22;9760;50.944;5.304;2022-12-08T04:34:15;4.00;99.90
19252;DHT22;9760;50.944;5.304;2022-12-08T04:36:41;3.90;99.90
19252;DHT22;9760;50.944;5.304;2022-12-08T04:39:07;3.90;99.90
19252;DHT22;9760;50.944;5.304;2022-12-08T04:41:32;3.80;99.90
19252;DHT22;9760;50.944;5.304;2022-12-08T04:43:58;3.80;99.90
19252;DHT22;9760;50.944;5.304;2022-12-08T04:46:24;3.80;99.90
19252;DHT22;9760;50.944;5.304;2022-12-08T04:48:49;3.70;99.90
19252;DHT22;9760;50.944;5.304;2022-12-08T04:51:19;3.80;99.90
19252;DHT22;9760;50.944;5.304;2022-12-08T04:53:45;3.80;99.90
19252;DHT22;9760;50.944;5.304;2022-12-08T04:56:12;3.80;99.90
19252;DHT22;9760;50.944;5.304;2022-12-08T04:58:38;3.80;99.90
19252;DHT22;9760;50.944;5.304;2022-12-08T05:01:04;3.90;99.90
19252;DHT22;9760;50.944;5.304;2022-12-08T05:03:30;3.90;99.90
19252;DHT22;9760;50.944;5.304;2022-12-08T05:05:58;3.80;99.90
19252;DHT22;9760;50.944;5.304;2022-12-08T05:08:24;3.80;99.90
19252;DHT22;9760;50.944;5.304;2022-12-08T05:10:50;3.80;99.90
19252;DHT22;9760;50.944;5.304;2022-12-08T05:13:15;3.80;99.90
19252;DHT22;9760;50.944;5.304;2022-12-08T05:15:41;3.80;99.90
19252;DHT22;9760;50.944;5.304;2022-12-08T05:18:06;3.80;99.90
19252;DHT22;9760;50.944;5.304;2022-12-08T05:20:33;3.70;99.90
19252;DHT22;9760;50.944;5.304;2022-12-08T05:22:58;3.70;99.90
19252;DHT22;9760;50.944;5.304;2022-12-08T05:25:24;3.60;99.90
19252;DHT22;9760;50.944;5.304;2022-12-08T05:27:49;3.60;99.90
19252;DHT22;9760;50.944;5.304;2022-12-08T05:30:15;3.60;99.90
19252;DHT22;9760;50.944;5.304;2022-12-08T05:32:41;3.70;99.90
19252;DHT22;9760;50.944;5.304;2022-12-08T05:35:06;3.60;99.90
19252;DHT22;9760;50.944;5.304;2022-12-08T05:37:32;3.60;99.90
19252;DHT22;9760;50.944;5.304;2022-12-08T05:39:58;3.60;99.90
19252;DHT22;9760;50.944;5.304;2022-12-08T05:42:23;3.60;99.90
19252;DHT22;9760;50.944;5.304;2022-12-08T05:44:49;3.60;99.90
19252;DHT22;9760;50.944;5.304;2022-12-08T05:47:15;3.60;99.90
19252;DHT22;9760;50.944;5.304;2022-12-08T05:49:40;3.70;99.90
19252;DHT22;9760;50.944;5.304;2022-12-08T05:52:06;3.70;99.90
19252;DHT22;9760;50.944;5.304;2022-12-08T05:54:31;3.60;99.90
19252;DHT22;9760;50.944;5.304;2022-12-08T05:56:57;3.70;99.90
19252;DHT22;9760;50.944;5.304;2022-12-08T05:59:24;3.70;99.90
19252;DHT22;9760;50.944;5.304;2022-12-08T06:01:49;3.70;99.90
19252;DHT22;9760;50.944;5.304;2022-12-08T06:04:15;3.70;99.90
19252;DHT22;9760;50.944;5.304;2022-12-08T06:06:40;3.70;99.90
19252;DHT22;9760;50.944;5.304;2022-12-08T06:09:06;3.70;99.90
19252;DHT22;9760;50.944;5.304;2022-12-08T06:11:34;3.70;99.90
19252;DHT22;9760;50.944;5.304;2022-12-08T06:14:02;3.70;99.90
19252;DHT22;9760;50.944;5.304;2022-12-08T06:16:28;3.80;99.90
19252;DHT22;9760;50.944;5.304;2022-12-08T06:18:55;3.70;99.90
19252;DHT22;9760;50.944;5.304;2022-12-08T06:21:21;3.80;99.90
19252;DHT22;9760;50.944;5.304;2022-12-08T06:23:49;3.90;99.90
19252;DHT22;9760;50.944;5.304;2022-12-08T06:26:16;3.80;99.90
19252;DHT22;9760;50.944;5.304;2022-12-08T06:28:42;3.80;99.90
19252;DHT22;9760;50.944;5.304;2022-12-08T06:31:16;3.90;99.90
19252;DHT22;9760;50.944;5.304;2022-12-08T06:33:42;3.90;99.90
19252;DHT22;9760;50.944;5.304;2022-12-08T06:36:14;3.90;99.90
19252;DHT22;9760;50.944;5.304;2022-12-08T06:38:40;3.90;99.90
19252;DHT22;9760;50.944;5.304;2022-12-08T06:41:07;3.80;99.90
19252;DHT22;9760;50.944;5.304;2022-12-08T06:43:35;3.80;99.90
19252;DHT22;9760;50.944;5.304;2022-12-08T06:46:12;3.70;99.90
19252;DHT22;9760;50.944;5.304;2022-12-08T06:48:38;3.80;99.90
19252;DHT22;9760;50.944;5.304;2022-12-08T06:51:18;3.80;99.90
19252;DHT22;9760;50.944;5.304;2022-12-08T06:53:45;3.80;99.90
19252;DHT22;9760;50.944;5.304;2022-12-08T06:56:12;3.80;99.90
19252;DHT22;9760;50.944;5.304;2022-12-08T06:58:38;3.70;99.90
19252;DHT22;9760;50.944;5.304;2022-12-08T07:01:09;3.70;99.90
19252;DHT22;9760;50.944;5.304;2022-12-08T07:03:36;3.70;99.90
19252;DHT22;9760;50.944;5.304;2022-12-08T07:06:02;3.70;99.90
19252;DHT22;9760;50.944;5.304;2022-12-08T07:08:29;3.70;99.90
19252;DHT22;9760;50.944;5.304;2022-12-08T07:10:54;3.70;99.90
19252;DHT22;9760;50.944;5.304;2022-12-08T07:13:20;3.60;99.90
19252;DHT22;9760;50.944;5.304;2022-12-08T07:15:46;3.60;99.90
19252;DHT22;9760;50.944;5.304;2022-12-08T07:18:11;3.70;99.90
19252;DHT22;9760;50.944;5.304;2022-12-08T07:20:37;3.60;99.90
19252;DHT22;9760;50.944;5.304;2022-12-08T07:23:03;3.60;99.90
19252;DHT22;9760;50.944;5.304;2022-12-08T07:25:29;3.60;99.90
19252;DHT22;9760;50.944;5.304;2022-12-08T07:27:54;3.60;99.90
19252;DHT22;9760;50.944;5.304;2022-12-08T07:30:20;3.60;99.90
19252;DHT22;9760;50.944;5.304;2022-12-08T07:32:45;3.60;99.90
19252;DHT22;9760;50.944;5.304;2022-12-08T07:35:11;3.60;99.90
19252;DHT22;9760;50.944;5.304;2022-12-08T07:37:37;3.60;99.90
19252;DHT22;9760;50.944;5.304;2022-12-08T07:40:05;3.60;99.90
19252;DHT22;9760;50.944;5.304;2022-12-08T07:42:31;3.60;99.90
19252;DHT22;9760;50.944;5.304;2022-12-08T07:44:57;3.60;99.90
19252;DHT22;9760;50.944;5.304;2022-12-08T07:47:23;3.60;99.90
19252;DHT22;9760;50.944;5.304;2022-12-08T07:49:48;3.70;99.90
19252;DHT22;9760;50.944;5.304;2022-12-08T07:52:14;3.70;99.90
19252;DHT22;9760;50.944;5.304;2022-12-08T07:54:40;3.70;99.90
19252;DHT22;9760;50.944;5.304;2022-12-08T07:57:08;3.70;99.90
19252;DHT22;9760;50.944;5.304;2022-12-08T07:59:34;3.70;99.90
19252;DHT22;9760;50.944;5.304;2022-12-08T08:02:00;3.70;99.90
19252;DHT22;9760;50.944;5.304;2022-12-08T08:04:26;3.70;99.90
19252;DHT22;9760;50.944;5.304;2022-12-08T08:06:52;3.70;99.90
19252;DHT22;9760;50.944;5.304;2022-12-08T08:09:17;3.70;99.90
19252;DHT22;9760;50.944;5.304;2022-12-08T08:11:43;3.70;99.90
19252;DHT22;9760;50.944;5.304;2022-12-08T08:14:09;3.70;99.90
19252;DHT22;9760;50.944;5.304;2022-12-08T08:16:34;3.80;99.90
19252;DHT22;9760;50.944;5.304;2022-12-08T08:19:00;3.80;99.90
19252;DHT22;9760;50.944;5.304;2022-12-08T08:21:26;3.80;99.90
19252;DHT22;9760;50.944;5.304;2022-12-08T08:23:51;3.80;99.90
19252;DHT22;9760;50.944;5.304;2022-12-08T08:26:17;3.70;99.90
19252;DHT22;9760;50.944;5.304;2022-12-08T08:28:43;3.70;99.90
19252;DHT22;9760;50.944;5.304;2022-12-08T08:31:11;3.80;99.90
19252;DHT22;9760;50.944;5.304;2022-12-08T08:33:36;3.80;99.90
19252;DHT22;9760;50.944;5.304;2022-12-08T08:36:06;3.80;99.90
19252;DHT22;9760;50.944;5.304;2022-12-08T08:38:32;3.80;99.90
19252;DHT22;9760;50.944;5.304;2022-12-08T08:40:58;3.80;99.90
19252;DHT22;9760;50.944;5.304;2022-12-08T08:43:23;3.80;99.90
19252;DHT22;9760;50.944;5.304;2022-12-08T08:45:56;3.80;99.90
19252;DHT22;9760;50.944;5.304;2022-12-08T08:48:24;3.80;99.90
19252;DHT22;9760;50.944;5.304;2022-12-08T08:50:50;3.80;99.90
19252;DHT22;9760;50.944;5.304;2022-12-08T08:53:16;3.80;99.90
19252;DHT22;9760;50.944;5.304;2022-12-08T08:55:41;3.80;99.90
19252;DHT22;9760;50.944;5.304;2022-12-08T08:58:07;3.80;99.90
19252;DHT22;9760;50.944;5.304;2022-12-08T09:00:32;3.80;99.90
19252;DHT22;9760;50.944;5.304;2022-12-08T09:02:58;3.90;99.90
19252;DHT22;9760;50.944;5.304;2022-12-08T09:05:23;3.90;99.90
19252;DHT22;9760;50.944;5.304;2022-12-08T09:07:49;3.90;99.90
19252;DHT22;9760;50.944;5.304;2022-12-08T09:10:15;3.90;99.90
19252;DHT22;9760;50.944;5.304;2022-12-08T09:12:40;3.90;99.90
19252;DHT22;9760;50.944;5.304;2022-12-08T09:15:06;3.90;99.90
19252;DHT22;9760;50.944;5.304;2022-12-08T09:17:32;3.90;99.90
19252;DHT22;9760;50.944;5.304;2022-12-08T09:19:57;4.00;99.90
19252;DHT22;9760;50.944;5.304;2022-12-08T09:22:23;4.10;99.90
19252;DHT22;9760;50.944;5.304;2022-12-08T09:24:49;4.10;99.90
19252;DHT22;9760;50.944;5.304;2022-12-08T09:27:14;4.20;99.90
19252;DHT22;9760;50.944;5.304;2022-12-08T09:29:40;4.20;99.90
19252;DHT22;9760;50.944;5.304;2022-12-08T09:32:06;4.20;99.90
19252;DHT22;9760;50.944;5.304;2022-12-08T09:34:31;4.20;99.90
19252;DHT22;9760;50.944;5.304;2022-12-08T09:36:57;4.20;99.90
19252;DHT22;9760;50.944;5.304;2022-12-08T09:39:22;4.30;99.90
19252;DHT22;9760;50.944;5.304;2022-12-08T09:41:49;4.20;99.90
19252;DHT22;9760;50.944;5.304;2022-12-08T09:44:54;4.30;99.90
19252;DHT22;9760;50.944;5.304;2022-12-08T09:47:36;4.40;99.90
19252;DHT22;9760;50.944;5.304;2022-12-08T09:52:40;4.40;99.90
19252;DHT22;9760;50.944;5.304;2022-12-08T09:55:16;4.50;99.90
19252;DHT22;9760;50.944;5.304;2022-12-08T09:57:47;4.40;99.90
19252;DHT22;9760;50.944;5.304;2022-12-08T10:00:15;4.40;99.90
19252;DHT22;9760;50.944;5.304;2022-12-08T10:02:41;4.40;99.90
19252;DHT22;9760;50.944;5.304;2022-12-08T10:05:12;4.40;99.90
19252;DHT22;9760;50.944;5.304;2022-12-08T10:07:48;4.40;99.90
19252;DHT22;9760;50.944;5.304;2022-12-08T10:10:25;4.40;99.90
19252;DHT22;9760;50.944;5.304;2022-12-08T10:13:15;4.40;99.90
19252;DHT22;9760;50.944;5.304;2022-12-08T10:18:31;4.40;99.90
19252;DHT22;9760;50.944;5.304;2022-12-08T10:21:08;4.40;99.90
19252;DHT22;9760;50.944;5.304;2022-12-08T10:23:38;4.50;99.90
19252;DHT22;9760;50.944;5.304;2022-12-08T10:26:05;4.50;99.90
19252;DHT22;9760;50.944;5.304;2022-12-08T10:28:32;4.50;99.90
19252;DHT22;9760;50.944;5.304;2022-12-08T10:30:58;4.60;99.90
19252;DHT22;9760;50.944;5.304;2022-12-08T10:33:23;4.50;99.90
19252;DHT22;9760;50.944;5.304;2022-12-08T10:35:56;4.50;99.90
19252;DHT22;9760;50.944;5.304;2022-12-08T10:40:53;4.50;99.90
19252;DHT22;9760;50.944;5.304;2022-12-08T10:43:24;4.40;99.90
19252;DHT22;9760;50.944;5.304;2022-12-08T10:45:51;4.40;99.90
19252;DHT22;9760;50.944;5.304;2022-12-08T10:48:23;4.50;99.90
19252;DHT22;9760;50.944;5.304;2022-12-08T10:50:58;4.50;99.90
19252;DHT22;9760;50.944;5.304;2022-12-08T10:58:35;4.50;99.90
19252;DHT22;9760;50.944;5.304;2022-12-08T11:01:17;4.50;99.90
19252;DHT22;9760;50.944;5.304;2022-12-08T11:03:48;4.50;99.90
19252;DHT22;9760;50.944;5.304;2022-12-08T11:06:18;4.40;99.90
19252;DHT22;9760;50.944;5.304;2022-12-08T11:08:47;4.40;99.90
19252;DHT22;9760;50.944;5.304;2022-12-08T11:11:14;4.50;99.90
19252;DHT22;9760;50.944;5.304;2022-12-08T11:13:40;4.40;99.90
19252;DHT22;9760;50.944;5.304;2022-12-08T11:16:07;4.40;99.90
19252;DHT22;9760;50.944;5.304;2022-12-08T11:18:44;4.40;99.90
19252;DHT22;9760;50.944;5.304;2022-12-08T11:21:18;4.50;99.90
19252;DHT22;9760;50.944;5.304;2022-12-08T11:23:49;4.50;99.90
19252;DHT22;9760;50.944;5.304;2022-12-08T11:26:26;4.50;99.90
19252;DHT22;9760;50.944;5.304;2022-12-08T11:28:53;4.60;99.90
19252;DHT22;9760;50.944;5.304;2022-12-08T11:31:29;4.70;99.90
19252;DHT22;9760;50.944;5.304;2022-12-08T11:33:55;4.80;99.90
19252;DHT22;9760;50.944;5.304;2022-12-08T11:36:24;4.70;99.90
19252;DHT22;9760;50.944;5.304;2022-12-08T11:38:55;4.80;99.90
19252;DHT22;9760;50.944;5.304;2022-12-08T11:41:25;4.80;99.90
19252;DHT22;9760;50.944;5.304;2022-12-08T11:44:06;4.80;99.90
19252;DHT22;9760;50.944;5.304;2022-12-08T11:46:44;4.80;99.90
19252;DHT22;9760;50.944;5.304;2022-12-08T11:49:13;4.80;99.90
19252;DHT22;9760;50.944;5.304;2022-12-08T11:51:56;4.80;99.90
19252;DHT22;9760;50.944;5.304;2022-12-08T11:54:31;4.70;99.90
19252;DHT22;9760;50.944;5.304;2022-12-08T11:57:00;4.60;99.90
19252;DHT22;9760;50.944;5.304;2022-12-08T11:59:36;4.60;99.90
19252;DHT22;9760;50.944;5.304;2022-12-08T12:02:04;4.60;99.90
19252;DHT22;9760;50.944;5.304;2022-12-08T12:07:32;4.70;99.90
19252;DHT22;9760;50.944;5.304;2022-12-08T12:13:08;4.90;99.90
19252;DHT22;9760;50.944;5.304;2022-12-08T12:21:17;5.10;99.90
19252;DHT22;9760;50.944;5.304;2022-12-08T12:23:54;5.10;99.90
19252;DHT22;9760;50.944;5.304;2022-12-08T12:26:32;5.20;99.90
19252;DHT22;9760;50.944;5.304;2022-12-08T12:29:16;5.20;99.90
19252;DHT22;9760;50.944;5.304;2022-12-08T12:31:50;5.30;99.90
19252;DHT22;9760;50.944;5.304;2022-12-08T12:34:26;5.30;99.90
19252;DHT22;9760;50.944;5.304;2022-12-08T12:37:02;5.40;99.90
19252;DHT22;9760;50.944;5.304;2022-12-08T12:39:33;5.40;99.90
19252;DHT22;9760;50.944;5.304;2022-12-08T12:42:00;5.40;99.90
19252;DHT22;9760;50.944;5.304;2022-12-08T12:46:54;5.30;99.90
19252;DHT22;9760;50.944;5.304;2022-12-08T12:55:18;5.40;99.90
19252;DHT22;9760;50.944;5.304;2022-12-08T12:57:56;5.50;99.90
19252;DHT22;9760;50.944;5.304;2022-12-08T13:00:24;5.50;99.90
19252;DHT22;9760;50.944;5.304;2022-12-08T13:02:53;5.50;99.90
19252;DHT22;9760;50.944;5.304;2022-12-08T13:05:31;5.50;99.90
19252;DHT22;9760;50.944;5.304;2022-12-08T13:08:06;5.60;99.90
19252;DHT22;9760;50.944;5.304;2022-12-08T13:10:37;5.60;99.90
19252;DHT22;9760;50.944;5.304;2022-12-08T13:15:38;5.60;99.90
19252;DHT22;9760;50.944;5.304;2022-12-08T13:18:06;5.60;99.90
19252;DHT22;9760;50.944;5.304;2022-12-08T13:20:46;5.60;99.90
19252;DHT22;9760;50.944;5.304;2022-12-08T13:26:26;5.70;99.90
19252;DHT22;9760;50.944;5.304;2022-12-08T13:31:42;5.60;99.90
19252;DHT22;9760;50.944;5.304;2022-12-08T13:34:15;5.50;99.90
19252;DHT22;9760;50.944;5.304;2022-12-08T13:40:01;5.40;99.90
19252;DHT22;9760;50.944;5.304;2022-12-08T13:42:49;5.50;99.90
19252;DHT22;9760;50.944;5.304;2022-12-08T13:45:25;5.50;99.90
19252;DHT22;9760;50.944;5.304;2022-12-08T13:50:45;5.50;99.90
19252;DHT22;9760;50.944;5.304;2022-12-08T13:53:25;5.40;99.90
19252;DHT22;9760;50.944;5.304;2022-12-08T13:55:56;5.40;99.90
19252;DHT22;9760;50.944;5.304;2022-12-08T13:58:40;5.40;99.90
19252;DHT22;9760;50.944;5.304;2022-12-08T14:01:22;5.50;99.90
19252;DHT22;9760;50.944;5.304;2022-12-08T14:03:55;5.50;99.90
19252;DHT22;9760;50.944;5.304;2022-12-08T14:06:35;5.40;99.90
19252;DHT22;9760;50.944;5.304;2022-12-08T14:09:06;5.40;99.90
19252;DHT22;9760;50.944;5.304;2022-12-08T14:11:43;5.40;99.90
19252;DHT22;9760;50.944;5.304;2022-12-08T14:14:18;5.40;99.90
19252;DHT22;9760;50.944;5.304;2022-12-08T14:17:01;5.40;99.90
19252;DHT22;9760;50.944;5.304;2022-12-08T14:19:32;5.50;99.90
19252;DHT22;9760;50.944;5.304;2022-12-08T14:24:34;5.30;99.90
19252;DHT22;9760;50.944;5.304;2022-12-08T14:27:02;5.30;99.90
19252;DHT22;9760;50.944;5.304;2022-12-08T14:32:20;5.40;99.90
19252;DHT22;9760;50.944;5.304;2022-12-08T14:35:17;5.40;99.90
19252;DHT22;9760;50.944;5.304;2022-12-08T14:37:41;5.30;99.90
19252;DHT22;9760;50.944;5.304;2022-12-08T14:40:23;5.30;99.90
19252;DHT22;9760;50.944;5.304;2022-12-08T14:53:41;5.10;99.90
19252;DHT22;9760;50.944;5.304;2022-12-08T14:56:20;5.10;99.90
19252;DHT22;9760;50.944;5.304;2022-12-08T14:58:49;5.10;99.90
19252;DHT22;9760;50.944;5.304;2022-12-08T15:01:20;5.10;99.90
19252;DHT22;9760;50.944;5.304;2022-12-08T15:03:48;5.10;99.90
19252;DHT22;9760;50.944;5.304;2022-12-08T15:06:14;5.00;99.90
19252;DHT22;9760;50.944;5.304;2022-12-08T15:08:52;5.00;99.90
19252;DHT22;9760;50.944;5.304;2022-12-08T15:13:49;4.90;99.90
19252;DHT22;9760;50.944;5.304;2022-12-08T15:19:12;4.90;99.90
19252;DHT22;9760;50.944;5.304;2022-12-08T15:21:38;4.80;99.90
19252;DHT22;9760;50.944;5.304;2022-12-08T15:24:04;4.80;99.90
19252;DHT22;9760;50.944;5.304;2022-12-08T15:26:33;4.80;99.90
19252;DHT22;9760;50.944;5.304;2022-12-08T15:29:12;4.80;99.90
19252;DHT22;9760;50.944;5.304;2022-12-08T15:31:41;4.80;99.90
19252;DHT22;9760;50.944;5.304;2022-12-08T15:34:06;4.70;99.90
19252;DHT22;9760;50.944;5.304;2022-12-08T15:36:32;4.60;99.90
19252;DHT22;9760;50.944;5.304;2022-12-08T15:38:58;4.60;99.90
19252;DHT22;9760;50.944;5.304;2022-12-08T15:41:23;4.60;99.90
19252;DHT22;9760;50.944;5.304;2022-12-08T15:43:49;4.50;99.90
19252;DHT22;9760;50.944;5.304;2022-12-08T15:46:14;4.50;99.90
19252;DHT22;9760;50.944;5.304;2022-12-08T15:48:40;4.30;99.90
19252;DHT22;9760;50.944;5.304;2022-12-08T15:51:06;4.30;99.90
19252;DHT22;9760;50.944;5.304;2022-12-08T15:53:31;4.20;99.90
19252;DHT22;9760;50.944;5.304;2022-12-08T15:55:58;4.20;99.90
19252;DHT22;9760;50.944;5.304;2022-12-08T15:58:25;4.20;99.90
19252;DHT22;9760;50.944;5.304;2022-12-08T16:00:51;4.10;99.90
19252;DHT22;9760;50.944;5.304;2022-12-08T16:03:25;4.10;99.90
19252;DHT22;9760;50.944;5.304;2022-12-08T16:05:53;4.00;99.90
19252;DHT22;9760;50.944;5.304;2022-12-08T16:08:20;4.00;99.90
19252;DHT22;9760;50.944;5.304;2022-12-08T16:10:46;4.10;99.90
19252;DHT22;9760;50.944;5.304;2022-12-08T16:13:18;4.10;99.90
19252;DHT22;9760;50.944;5.304;2022-12-08T16:16:08;4.00;99.90
19252;DHT22;9760;50.944;5.304;2022-12-08T16:18:37;4.00;99.90
19252;DHT22;9760;50.944;5.304;2022-12-08T16:21:03;3.90;99.90
19252;DHT22;9760;50.944;5.304;2022-12-08T16:23:29;3.90;99.90
19252;DHT22;9760;50.944;5.304;2022-12-08T16:25:55;3.90;99.90
19252;DHT22;9760;50.944;5.304;2022-12-08T16:28:21;3.80;99.90
19252;DHT22;9760;50.944;5.304;2022-12-08T16:30:47;3.80;99.90
19252;DHT22;9760;50.944;5.304;2022-12-08T16:33:13;3.80;99.90
19252;DHT22;9760;50.944;5.304;2022-12-08T16:35:40;3.80;99.90
19252;DHT22;9760;50.944;5.304;2022-12-08T16:38:05;3.80;99.90
19252;DHT22;9760;50.944;5.304;2022-12-08T16:40:31;3.80;99.90
19252;DHT22;9760;50.944;5.304;2022-12-08T16:42:57;3.80;99.90
19252;DHT22;9760;50.944;5.304;2022-12-08T16:45:29;3.80;99.90
19252;DHT22;9760;50.944;5.304;2022-12-08T16:47:57;3.90;99.90
19252;DHT22;9760;50.944;5.304;2022-12-08T16:50:31;3.90;99.90
19252;DHT22;9760;50.944;5.304;2022-12-08T16:53:02;3.80;99.90
19252;DHT22;9760;50.944;5.304;2022-12-08T16:55:28;3.80;99.90
19252;DHT22;9760;50.944;5.304;2022-12-08T16:57:54;3.80;99.90
19252;DHT22;9760;50.944;5.304;2022-12-08T17:00:23;3.80;99.90
19252;DHT22;9760;50.944;5.304;2022-12-08T17:02:49;3.90;99.90
19252;DHT22;9760;50.944;5.304;2022-12-08T17:05:16;3.90;99.90
19252;DHT22;9760;50.944;5.304;2022-12-08T17:07:43;3.90;99.90
19252;DHT22;9760;50.944;5.304;2022-12-08T17:10:12;3.90;99.90
19252;DHT22;9760;50.944;5.304;2022-12-08T17:12:38;3.70;99.90
19252;DHT22;9760;50.944;5.304;2022-12-08T17:15:09;3.90;99.90
19252;DHT22;9760;50.944;5.304;2022-12-08T17:17:36;3.80;99.90
19252;DHT22;9760;50.944;5.304;2022-12-08T17:20:07;3.80;99.90
19252;DHT22;9760;50.944;5.304;2022-12-08T17:22:33;3.60;99.90
19252;DHT22;9760;50.944;5.304;2022-12-08T17:25:03;3.60;99.90
19252;DHT22;9760;50.944;5.304;2022-12-08T17:27:28;3.60;99.90
19252;DHT22;9760;50.944;5.304;2022-12-08T17:29:54;3.50;99.90
19252;DHT22;9760;50.944;5.304;2022-12-08T17:32:20;3.50;99.90
19252;DHT22;9760;50.944;5.304;2022-12-08T17:34:46;3.40;99.90
19252;DHT22;9760;50.944;5.304;2022-12-08T17:37:14;3.40;99.90
19252;DHT22;9760;50.944;5.304;2022-12-08T17:39:40;3.50;99.90
19252;DHT22;9760;50.944;5.304;2022-12-08T17:42:06;3.40;99.90
19252;DHT22;9760;50.944;5.304;2022-12-08T17:44:32;3.40;99.90
19252;DHT22;9760;50.944;5.304;2022-12-08T17:46:59;3.40;99.90
19252;DHT22;9760;50.944;5.304;2022-12-08T17:49:26;3.40;99.90
19252;DHT22;9760;50.944;5.304;2022-12-08T17:51:55;3.40;99.90